Time;durP1;ratioP1;P1;durP2;ratioP2;P2;SDS_P1;SDS_P2;PMS_P1;PMS_P2;Temp;Humidity;BMP_temperature;BMP_pressure;BME280_temperature;BME280_humidity;BME280_pressure;Samples;Min_cycle;Max_cycle;Signal;HPM_P1;HPM_P2
2023/04/29 00:01:04;;;;;;;3.90;3.30;;;;;;;;;;5034713;28;20489;-31
2023/04/29 00:03:31;;;;;;;3.72;3.20;;;18.80;68.40;;;;;;5052061;28;20111;-31
2023/04/29 00:05:58;;;;;;;3.55;3.22;;;18.80;68.30;;;;;;5052131;28;20051;-31
2023/04/29 00:08:26;;;;;;;4.07;3.30;;;18.90;68.50;;;;;;5051876;28;20085;-31
2023/04/29 00:10:53;;;;;;;3.72;3.17;;;18.40;68.10;;;;;;5052266;28;20045;-31
2023/04/29 00:13:20;;;;;;;4.47;3.38;;;17.80;61.00;;;;;;5051823;28;20052;-31
2023/04/29 00:15:46;;;;;;;3.83;3.33;;;17.20;67.60;;;;;;5052173;28;20143;-31
2023/04/29 00:18:13;;;;;;;4.18;3.30;;;;;;;;;;5051492;28;20512;-30
2023/04/29 00:20:41;;;;;;;3.40;3.10;;;18.60;68.30;;;;;;5051861;28;20553;-31
2023/04/29 00:23:08;;;;;;;3.63;3.17;;;;;;;;;;5041912;28;20502;-30
2023/04/29 00:25:37;;;;;;;3.50;2.88;;;18.90;69.30;;;;;;5032175;28;20049;-31
2023/04/29 00:28:04;;;;;;;4.13;3.15;;;;;;;;;;5048376;28;20044;-30
2023/04/29 00:30:31;;;;;;;4.28;3.20;;;17.20;67.50;;;;;;5051821;28;20048;-31
2023/04/29 00:32:58;;;;;;;3.85;3.38;;;;;;;;;;5051697;28;20135;-30
2023/04/29 00:35:25;;;;;;;3.42;3.13;;;;;;;;;;5051948;28;20055;-31
2023/04/29 00:37:52;;;;;;;3.85;3.35;;;;;;;;;;5050997;28;20158;-31
2023/04/29 00:40:19;;;;;;;3.88;3.00;;;18.10;68.20;;;;;;5051692;28;20049;-31
2023/04/29 00:42:47;;;;;;;4.35;3.13;;;18.50;49.60;;;;;;5051445;28;20158;-30
2023/04/29 00:45:14;;;;;;;3.78;3.13;;;18.20;68.60;;;;;;5051657;28;20045;-31
2023/04/29 00:47:41;;;;;;;4.63;2.97;;;19.50;64.50;;;;;;5051314;28;20508;-31
2023/04/29 00:50:09;;;;;;;3.75;3.35;;;18.60;68.90;;;;;;5051580;28;20064;-31
2023/04/29 00:52:35;;;;;;;3.40;2.92;;;18.10;68.20;;;;;;5051304;28;20417;-31
2023/04/29 00:55:02;;;;;;;3.50;3.10;;;18.70;68.70;;;;;;5051611;28;20120;-31
2023/04/29 00:57:29;;;;;;;3.55;3.17;;;18.50;62.50;;;;;;5051152;28;20132;-31
2023/04/29 00:59:57;;;;;;;3.53;3.20;;;17.20;67.80;;;;;;5051404;28;20469;-31
2023/04/29 01:02:24;;;;;;;4.07;3.25;;;19.00;66.70;;;;;;5051318;28;20053;-31
2023/04/29 01:04:51;;;;;;;4.63;3.00;;;;;;;;;;5054252;28;20494;-31
2023/04/29 01:07:19;;;;;;;4.47;3.00;;;18.20;68.40;;;;;;5055433;28;20640;-31
2023/04/29 01:09:53;;;;;;;4.25;3.10;;;19.10;66.90;;;;;;5055717;28;20049;-31
2023/04/29 01:12:22;;;;;;;3.65;2.90;;;18.80;69.10;;;;;;5055354;28;20056;-31
2023/04/29 01:14:52;;;;;;;3.75;3.13;;;18.60;69.00;;;;;;5055451;28;20382;-31
2023/04/29 01:17:20;;;;;;;4.97;2.95;;;18.00;68.70;;;;;;5055439;28;20052;-31
2023/04/29 01:19:49;;;;;;;3.92;3.15;;;18.70;69.10;;;;;;5055071;28;20183;-31
2023/04/29 01:22:17;;;;;;;4.32;3.00;;;;;;;;;;5072122;28;20052;-31
2023/04/29 01:24:45;;;;;;;4.22;3.08;;;17.70;68.50;;;;;;5075256;28;20110;-31
2023/04/29 01:27:18;;;;;;;3.90;3.50;;;17.20;68.30;;;;;;5066350;28;20131;-31
2023/04/29 01:29:48;;;;;;;3.45;3.15;;;19.30;64.20;;;;;;5055274;28;20060;-31
2023/04/29 01:32:17;;;;;;;3.95;3.47;;;18.60;50.70;;;;;;5055083;28;20052;-31
2023/04/29 01:34:47;;;;;;;5.97;3.20;;;18.40;51.00;;;;;;5054915;28;20052;-31
2023/04/29 01:37:32;;;;;;;4.65;3.42;;;18.30;49.70;;;;;;5054178;28;20049;-30
2023/04/29 01:40:05;;;;;;;4.07;3.20;;;18.50;68.70;;;;;;5036970;28;20424;-31
2023/04/29 01:42:36;;;;;;;4.18;3.20;;;19.50;50.40;;;;;;5054719;28;20088;-30
2023/04/29 01:45:05;;;;;;;5.60;3.17;;;18.40;69.10;;;;;;5054837;28;20048;-31
2023/04/29 01:47:32;;;;;;;4.80;3.33;;;;;;;;;;5054592;28;20107;-31
2023/04/29 01:50:01;;;;;;;3.83;3.20;;;;;;;;;;5054642;28;20425;-31
2023/04/29 01:52:28;;;;;;;3.58;3.00;;;18.40;68.90;;;;;;5054524;28;20064;-31
2023/04/29 01:54:55;;;;;;;3.97;3.25;;;17.70;67.10;;;;;;5054904;28;20052;-31
2023/04/29 01:57:23;;;;;;;4.72;3.17;;;17.90;68.50;;;;;;5054029;28;20437;-31
2023/04/29 01:59:50;;;;;;;4.47;3.00;;;18.50;69.00;;;;;;5054626;28;20052;-31
2023/04/29 02:02:20;;;;;;;3.40;3.10;;;;;;;;;;5054348;28;20055;-30
2023/04/29 02:04:46;;;;;;;3.75;3.15;;;18.20;59.60;;;;;;5054812;28;20053;-31
2023/04/29 02:07:13;;;;;;;3.13;2.80;;;18.10;57.80;;;;;;5054002;28;20061;-30
2023/04/29 02:09:40;;;;;;;4.13;2.97;;;18.60;69.30;;;;;;5054435;28;20049;-31
2023/04/29 02:12:06;;;;;;;4.05;3.05;;;18.30;69.30;;;;;;5054415;28;20052;-31
2023/04/29 02:14:35;;;;;;;3.72;3.08;;;18.20;49.80;;;;;;5053742;28;20151;-31
2023/04/29 02:17:01;;;;;;;3.38;2.85;;;18.80;61.70;;;;;;5054052;28;20049;-30
2023/04/29 02:19:28;;;;;;;4.65;3.45;;;17.90;68.70;;;;;;5054218;28;20063;-31
2023/04/29 02:21:55;;;;;;;4.15;3.20;;;18.10;63.80;;;;;;5054133;28;20494;-31
2023/04/29 02:24:21;;;;;;;3.80;2.95;;;18.50;54.70;;;;;;5054008;28;20505;-31
2023/04/29 02:26:48;;;;;;;3.78;3.17;;;18.00;68.70;;;;;;5053784;28;20049;-31
2023/04/29 02:29:15;;;;;;;3.80;3.05;;;18.40;61.60;;;;;;5054102;28;20048;-31
2023/04/29 02:31:43;;;;;;;5.40;3.45;;;18.10;49.80;;;;;;5054000;28;20045;-30
2023/04/29 02:34:10;;;;;;;3.67;3.10;;;;;;;;;;5053805;28;20049;-30
2023/04/29 02:36:36;;;;;;;4.03;3.42;;;18.40;69.20;;;;;;5053225;28;20421;-31
2023/04/29 02:39:04;;;;;;;4.32;3.33;;;17.90;68.80;;;;;;5055679;28;20044;-31
2023/04/29 02:41:30;;;;;;;3.35;2.70;;;18.20;69.10;;;;;;5073973;28;20048;-31
2023/04/29 02:43:57;;;;;;;4.18;3.40;;;18.40;69.30;;;;;;5073514;28;20050;-31
2023/04/29 02:46:24;;;;;;;4.25;3.35;;;;;;;;;;5060106;28;20053;-30
2023/04/29 02:48:52;;;;;;;5.38;3.50;;;17.80;68.90;;;;;;5053296;28;20129;-31
2023/04/29 02:51:19;;;;;;;4.45;3.10;;;17.90;69.40;;;;;;5053851;28;20060;-31
2023/04/29 02:53:46;;;;;;;4.30;3.33;;;18.20;69.70;;;;;;5053538;28;20044;-31
2023/04/29 02:56:12;;;;;;;5.22;3.45;;;18.30;55.10;;;;;;5072494;28;20421;-31
2023/04/29 02:58:40;;;;;;;4.45;3.30;;;16.90;68.80;;;;;;5054679;28;20049;-31
2023/04/29 03:01:07;;;;;;;5.15;3.30;;;18.10;69.50;;;;;;5053603;28;20068;-31
2023/04/29 03:03:34;;;;;;;4.63;3.30;;;16.80;64.40;;;;;;5053434;28;20055;-31
2023/04/29 03:06:02;;;;;;;4.97;3.45;;;18.20;54.70;;;;;;5053411;28;20516;-30
2023/04/29 03:08:29;;;;;;;4.38;3.25;;;;;;;;;;5053073;28;20045;-31
2023/04/29 03:10:56;;;;;;;3.42;2.80;;;18.20;61.40;;;;;;5053076;28;20055;-31
2023/04/29 03:13:22;;;;;;;4.25;3.65;;;18.20;69.30;;;;;;5053344;28;20048;-31
2023/04/29 03:15:49;;;;;;;4.03;3.00;;;18.30;61.60;;;;;;5053420;28;20055;-31
2023/04/29 03:18:16;;;;;;;5.35;3.30;;;18.40;69.70;;;;;;5035256;28;20045;-31
2023/04/29 03:20:43;;;;;;;4.75;3.08;;;17.70;69.30;;;;;;5052977;28;20053;-31
2023/04/29 03:23:11;;;;;;;3.97;3.33;;;17.90;50.00;;;;;;5052950;28;20092;-31
2023/04/29 03:25:37;;;;;;;4.22;3.30;;;17.70;59.40;;;;;;5052655;28;20490;-31
2023/04/29 03:28:04;;;;;;;3.95;2.92;;;17.90;69.50;;;;;;5051991;28;20055;-31
2023/04/29 03:30:31;;;;;;;5.47;3.40;;;;;;;;;;5053155;28;20045;-31
2023/04/29 03:32:58;;;;;;;3.15;2.80;;;17.00;69.00;;;;;;5052503;28;20451;-31
2023/04/29 03:35:25;;;;;;;3.85;2.90;;;18.00;70.10;;;;;;5052823;28;20519;-31
2023/04/29 03:37:52;;;;;;;4.55;2.70;;;;;;;;;;5051941;28;20055;-31
2023/04/29 03:40:20;;;;;;;3.38;3.05;;;18.00;69.30;;;;;;5052765;28;20084;-31
2023/04/29 03:42:47;;;;;;;3.95;2.95;;;;;;;;;;5052382;28;20057;-31
2023/04/29 03:45:14;;;;;;;4.22;3.03;;;;;;;;;;5052609;28;20049;-31
2023/04/29 03:47:41;;;;;;;3.50;3.20;;;18.30;69.90;;;;;;5052383;28;20053;-31
2023/04/29 03:50:08;;;;;;;5.20;3.38;;;18.70;59.80;;;;;;5052432;28;20041;-31
2023/04/29 03:52:36;;;;;;;3.60;2.90;;;17.80;69.20;;;;;;5034586;28;20061;-31
2023/04/29 03:55:03;;;;;;;6.50;3.10;;;18.00;69.40;;;;;;5061634;28;20049;-31
2023/04/29 03:57:31;;;;;;;4.63;3.28;;;17.80;50.10;;;;;;5064844;28;20067;-31
2023/04/29 03:59:57;;;;;;;4.32;2.67;;;18.00;69.50;;;;;;5052402;28;20052;-31
2023/04/29 04:02:24;;;;;;;3.33;2.72;;;;;;;;;;5052193;28;20049;-30
2023/04/29 04:04:51;;;;;;;4.47;2.97;;;17.20;69.00;;;;;;5052143;28;20053;-31
2023/04/29 04:07:18;;;;;;;3.50;2.70;;;18.10;69.90;;;;;;5051946;28;20051;-31
2023/04/29 04:09:44;;;;;;;3.55;3.00;;;18.90;56.30;;;;;;5052431;28;20382;-31
2023/04/29 04:12:11;;;;;;;4.07;2.90;;;17.50;56.80;;;;;;5051943;28;20134;-30
2023/04/29 04:14:39;;;;;;;3.83;3.10;;;17.60;69.30;;;;;;5052228;28;20478;-31
2023/04/29 04:17:06;;;;;;;3.17;2.45;;;17.90;69.50;;;;;;5051824;28;20047;-31
2023/04/29 04:19:33;;;;;;;3.70;2.88;;;;;;;;;;5052090;28;20493;-31
2023/04/29 04:22:00;;;;;;;4.38;3.00;;;18.20;70.00;;;;;;5051929;28;20053;-31
2023/04/29 04:24:26;;;;;;;4.65;2.97;;;17.40;69.10;;;;;;5052083;28;20049;-31
2023/04/29 04:26:53;;;;;;;3.70;2.95;;;;;;;;;;5051587;28;20051;-30
2023/04/29 04:29:20;;;;;;;3.53;2.72;;;18.00;69.60;;;;;;5051906;28;20041;-31
2023/04/29 04:31:48;;;;;;;3.47;2.72;;;17.90;50.40;;;;;;5051921;28;20059;-30
2023/04/29 04:34:15;;;;;;;3.28;2.70;;;;;;;;;;5051675;28;20053;-31
2023/04/29 04:36:42;;;;;;;4.28;3.00;;;17.90;70.00;;;;;;5051523;28;20056;-30
2023/04/29 04:39:09;;;;;;;3.50;2.88;;;17.80;62.60;;;;;;5051013;28;20053;-31
2023/04/29 04:41:36;;;;;;;3.67;3.05;;;;;;;;;;5051655;28;20049;-31
2023/04/29 04:44:03;;;;;;;4.55;2.80;;;16.60;69.30;;;;;;5051421;28;20418;-31
2023/04/29 04:46:30;;;;;;;4.43;3.20;;;17.90;61.30;;;;;;5051721;28;20052;-31
2023/04/29 04:48:58;;;;;;;4.18;2.70;;;18.20;70.10;;;;;;5051188;28;20048;-31
2023/04/29 04:51:24;;;;;;;4.65;2.60;;;18.90;70.10;;;;;;5051600;28;20491;-31
2023/04/29 04:53:51;;;;;;;3.75;3.05;;;18.10;69.70;;;;;;5051116;28;20056;-31
2023/04/29 04:56:18;;;;;;;3.35;2.55;;;16.70;52.30;;;;;;5071256;28;20122;-30
2023/04/29 04:58:45;;;;;;;5.38;3.30;;;;;;;;;;5071618;28;20051;-31
2023/04/29 05:01:12;;;;;;;4.40;2.90;;;;;;;;;;5071615;28;20109;-30
2023/04/29 05:03:39;;;;;;;3.85;2.83;;;18.10;70.00;;;;;;5068415;28;20114;-31
2023/04/29 05:06:07;;;;;;;4.68;3.00;;;17.90;50.50;;;;;;5051490;28;20056;-31
2023/04/29 05:08:33;;;;;;;6.07;2.83;;;18.20;70.20;;;;;;5051411;28;20120;-31
2023/04/29 05:11:01;;;;;;;4.65;3.20;;;;;;;;;;5051552;28;20053;-30
2023/04/29 05:13:27;;;;;;;3.20;2.70;;;18.20;70.00;;;;;;5051032;28;20087;-31
2023/04/29 05:15:55;;;;;;;3.05;2.45;;;18.30;70.00;;;;;;5051557;28;20095;-31
2023/04/29 05:18:21;;;;;;;4.93;2.83;;;17.80;60.30;;;;;;5051169;28;20053;-31
2023/04/29 05:20:48;;;;;;;3.63;2.80;;;18.70;57.20;;;;;;5051410;28;20048;-31
2023/04/29 05:23:16;;;;;;;4.50;3.20;;;17.80;50.50;;;;;;5051323;28;20045;-31
2023/04/29 05:25:43;;;;;;;4.80;3.20;;;;;;;;;;5051025;28;20055;-31
2023/04/29 05:28:10;;;;;;;4.28;2.70;;;17.50;54.30;;;;;;5050856;28;20064;-31
2023/04/29 05:30:37;;;;;;;4.55;2.90;;;17.50;70.00;;;;;;5051236;28;20055;-31
2023/04/29 05:33:04;;;;;;;4.10;2.72;;;17.80;69.70;;;;;;5051099;28;20053;-31
2023/04/29 05:35:31;;;;;;;3.72;2.75;;;;;;;;;;5050943;28;20053;-31
2023/04/29 05:37:57;;;;;;;3.92;2.70;;;16.60;69.10;;;;;;5050509;28;20053;-31
2023/04/29 05:40:26;;;;;;;3.97;2.90;;;17.60;70.00;;;;;;5051208;28;20048;-31
2023/04/29 05:42:52;;;;;;;4.15;2.90;;;17.70;69.80;;;;;;5050874;28;20053;-31
2023/04/29 05:45:19;;;;;;;4.68;2.75;;;18.10;70.30;;;;;;5050633;28;20132;-31
2023/04/29 05:47:46;;;;;;;4.00;2.88;;;17.30;57.70;;;;;;5050801;28;20049;-31
2023/04/29 05:50:12;;;;;;;3.60;2.83;;;17.70;70.00;;;;;;5052755;28;20049;-31
2023/04/29 05:52:39;;;;;;;2.88;2.53;;;18.20;70.00;;;;;;5041781;28;20057;-31
2023/04/29 05:55:06;;;;;;;4.00;2.50;;;17.20;61.00;;;;;;5061833;28;20052;-31
2023/04/29 05:57:34;;;;;;;3.80;2.50;;;18.60;70.30;;;;;;5074924;28;20504;-31
2023/04/29 06:00:02;;;;;;;3.33;2.47;;;18.00;70.20;;;;;;5074588;28;20063;-31
2023/04/29 06:02:29;;;;;;;2.95;2.33;;;18.00;70.20;;;;;;5054394;28;20045;-31
2023/04/29 06:04:56;;;;;;;3.80;2.83;;;17.70;60.30;;;;;;5054504;28;20394;-31
2023/04/29 06:07:23;;;;;;;3.65;2.50;;;18.40;70.10;;;;;;5053989;28;20041;-31
2023/04/29 06:09:50;;;;;;;3.15;2.28;;;18.20;69.70;;;;;;5054213;28;20055;-31
2023/04/29 06:12:16;;;;;;;3.00;2.22;;;17.90;59.30;;;;;;5053680;28;20128;-31
2023/04/29 06:14:44;;;;;;;3.55;2.40;;;19.30;69.90;;;;;;5054332;28;20454;-31
2023/04/29 06:17:11;;;;;;;3.45;2.33;;;19.30;70.00;;;;;;5054140;28;20052;-31
2023/04/29 06:19:38;;;;;;;3.70;2.30;;;18.00;68.90;;;;;;5054035;28;20116;-31
2023/04/29 06:22:05;;;;;;;4.38;2.20;;;18.60;59.80;;;;;;5053649;28;20486;-31
2023/04/29 06:24:31;;;;;;;3.72;2.05;;;18.80;68.90;;;;;;5053853;28;20056;-31
2023/04/29 06:26:58;;;;;;;2.90;1.98;;;18.40;68.50;;;;;;5053813;28;20055;-31
2023/04/29 06:29:25;;;;;;;2.67;1.70;;;;;;;;;;5053539;28;20063;-31
2023/04/29 06:31:54;;;;;;;2.67;2.00;;;18.90;49.40;;;;;;5053539;28;20132;-31
2023/04/29 06:34:21;;;;;;;3.30;2.03;;;20.00;62.90;;;;;;5053303;28;20095;-31
2023/04/29 06:36:48;;;;;;;2.80;2.00;;;19.40;68.20;;;;;;5047173;28;20100;-31
2023/04/29 06:39:15;;;;;;;3.05;2.00;;;19.80;68.60;;;;;;5034088;28;20060;-31
2023/04/29 06:41:42;;;;;;;3.70;1.90;;;19.90;68.50;;;;;;5046518;28;20057;-30
2023/04/29 06:44:09;;;;;;;2.15;1.77;;;19.30;68.10;;;;;;5053935;28;20666;-31
2023/04/29 06:46:35;;;;;;;2.28;1.50;;;20.00;55.00;;;;;;5053185;28;20052;-30
2023/04/29 06:49:03;;;;;;;2.33;1.70;;;19.10;67.30;;;;;;5053375;28;20041;-31
2023/04/29 06:51:31;;;;;;;3.00;1.73;;;;;;;;;;5051489;28;20088;-31
2023/04/29 06:53:58;;;;;;;3.22;1.77;;;;;;;;;;5053437;28;20048;-30
2023/04/29 06:56:24;;;;;;;2.30;1.70;;;20.00;67.50;;;;;;5054498;28;20055;-31
2023/04/29 06:58:51;;;;;;;1.95;1.60;;;;;;;;;;5053530;28;20067;-31
2023/04/29 07:01:18;;;;;;;2.70;1.70;;;19.40;65.30;;;;;;5048362;28;20053;-30
2023/04/29 07:03:45;;;;;;;3.40;1.88;;;;;;;;;;5042785;28;20049;-31
2023/04/29 07:06:13;;;;;;;2.70;1.90;;;20.30;48.60;;;;;;5042449;28;20052;-31
2023/04/29 07:08:40;;;;;;;2.75;1.77;;;;;;;;;;5042217;28;20049;-30
2023/04/29 07:11:07;;;;;;;1.98;1.50;;;19.30;66.40;;;;;;5040728;28;20413;-31
2023/04/29 07:13:33;;;;;;;2.17;1.63;;;20.20;67.70;;;;;;5053324;28;20053;-31
2023/04/29 07:16:00;;;;;;;3.50;1.65;;;20.10;52.90;;;;;;5053438;28;20490;-30
2023/04/29 07:18:27;;;;;;;2.45;1.70;;;20.40;66.60;;;;;;5052969;28;20049;-31
2023/04/29 07:20:54;;;;;;;2.00;1.60;;;20.30;66.90;;;;;;5053217;28;20041;-31
2023/04/29 07:23:22;;;;;;;2.58;1.50;;;20.30;47.90;;;;;;5052935;28;20053;-31
2023/04/29 07:25:51;;;;;;;1.65;1.35;;;20.10;66.40;;;;;;5053489;28;20062;-31
2023/04/29 07:28:18;;;;;;;1.90;1.60;;;;;;;;;;5052846;28;20053;-31
2023/04/29 07:30:45;;;;;;;2.35;1.45;;;;;;;;;;5052839;28;20053;-30
2023/04/29 07:33:11;;;;;;;3.42;1.83;;;21.30;66.50;;;;;;5049507;28;20045;-31
2023/04/29 07:35:40;;;;;;;3.17;1.70;;;21.20;66.40;;;;;;5041209;28;20045;-31
2023/04/29 07:38:08;;;;;;;1.95;1.40;;;;;;;;;;5051808;28;20098;-31
2023/04/29 07:40:36;;;;;;;2.78;1.48;;;20.50;66.50;;;;;;5050405;28;20056;-31
2023/04/29 07:43:05;;;;;;;1.73;1.25;;;20.60;66.00;;;;;;5041955;28;20137;-31
2023/04/29 07:45:32;;;;;;;2.97;1.60;;;;;;;;;;5048503;28;20056;-31
2023/04/29 07:47:59;;;;;;;2.33;1.65;;;;;;;;;;5052267;28;20041;-31
2023/04/29 07:50:26;;;;;;;2.00;1.50;;;;;;;;;;5051785;28;20423;-30
2023/04/29 07:52:56;;;;;;;2.60;1.50;;;;;;;;;;5050120;28;20412;-30
2023/04/29 07:55:26;;;;;;;2.00;1.58;;;;;;;;;;5050497;28;20053;-31
2023/04/29 07:57:54;;;;;;;1.70;1.30;;;19.90;65.30;;;;;;5051743;28;20052;-30
2023/04/29 08:00:21;;;;;;;1.67;1.40;;;20.60;65.30;;;;;;5049624;28;20485;-31
2023/04/29 08:02:50;;;;;;;1.88;1.30;;;20.40;49.00;;;;;;5051484;28;20045;-30
2023/04/29 08:05:17;;;;;;;1.88;1.40;;;20.80;65.40;;;;;;5052313;28;20060;-31
2023/04/29 08:07:45;;;;;;;2.40;1.40;;;;;;;;;;5047357;28;20053;-31
2023/04/29 08:10:11;;;;;;;2.45;1.38;;;21.00;65.50;;;;;;5051821;28;20045;-31
2023/04/29 08:12:38;;;;;;;2.72;1.35;;;20.20;52.30;;;;;;5045944;28;20053;-30
2023/04/29 08:15:07;;;;;;;1.48;1.15;;;20.50;65.50;;;;;;5051695;28;20204;-31
2023/04/29 08:17:34;;;;;;;1.17;1.08;;;20.40;52.30;;;;;;5031401;28;20409;-30
2023/04/29 08:20:01;;;;;;;2.20;1.38;;;19.90;64.50;;;;;;5042406;28;20044;-31
2023/04/29 08:22:28;;;;;;;2.15;1.30;;;21.90;65.60;;;;;;5044333;28;20045;-31
2023/04/29 08:24:54;;;;;;;2.28;1.50;;;21.60;59.80;;;;;;5052048;28;20055;-30
2023/04/29 08:27:22;;;;;;;2.10;1.50;;;;;;;;;;5052127;28;20494;-30
2023/04/29 08:29:49;;;;;;;3.20;1.40;;;;;;;;;;5051773;28;20040;-31
2023/04/29 08:32:17;;;;;;;2.13;1.40;;;20.70;65.20;;;;;;5051339;28;20409;-30
2023/04/29 08:34:44;;;;;;;1.73;1.45;;;;;;;;;;5058401;28;20048;-30
2023/04/29 08:37:11;;;;;;;2.40;1.60;;;;;;;;;;5060236;28;20053;-31
2023/04/29 08:39:37;;;;;;;2.22;1.50;;;21.70;62.90;;;;;;5051805;28;20125;-30
2023/04/29 08:42:08;;;;;;;2.50;1.80;;;21.10;47.00;;;;;;5051267;28;20052;-30
2023/04/29 08:44:35;;;;;;;1.50;1.38;;;21.50;65.20;;;;;;5051417;28;20053;-30
2023/04/29 08:47:02;;;;;;;1.92;1.40;;;22.30;65.20;;;;;;5051721;28;20080;-30
2023/04/29 08:49:31;;;;;;;2.78;1.70;;;21.40;64.80;;;;;;5051824;28;20059;-30
2023/04/29 08:51:58;;;;;;;2.45;1.55;;;21.90;65.20;;;;;;5050585;28;20743;-30
2023/04/29 08:54:25;;;;;;;2.42;1.50;;;21.40;63.90;;;;;;5047598;28;20047;-30
2023/04/29 08:56:52;;;;;;;1.65;1.30;;;20.40;46.80;;;;;;5041114;28;20049;-31
2023/04/29 08:59:18;;;;;;;1.42;1.33;;;20.10;64.00;;;;;;5044482;28;20061;-30
2023/04/29 09:01:49;;;;;;;2.10;1.48;;;;;;;;;;5050403;28;20051;-33
2023/04/29 09:04:20;;;;;;;1.80;1.33;;;21.60;52.30;;;;;;5049472;28;20111;-30
2023/04/29 09:06:48;;;;;;;1.63;1.35;;;21.20;65.30;;;;;;5051189;28;20052;-30
2023/04/29 09:09:15;;;;;;;2.08;1.50;;;22.40;65.10;;;;;;5050758;28;20052;-30
2023/04/29 09:11:42;;;;;;;1.60;1.50;;;;;;;;;;5051156;28;20048;-30
2023/04/29 09:14:09;;;;;;;2.10;1.40;;;21.60;64.50;;;;;;5050848;28;20048;-30
2023/04/29 09:16:37;;;;;;;2.33;1.40;;;21.40;64.40;;;;;;5048586;28;20044;-30
2023/04/29 09:19:04;;;;;;;1.73;1.33;;;21.70;48.70;;;;;;5050733;28;20052;-31
2023/04/29 09:21:32;;;;;;;2.45;1.80;;;;;;;;;;5049641;28;20063;-30
2023/04/29 09:24:00;;;;;;;1.77;1.42;;;22.00;57.20;;;;;;5050625;28;20067;-31
2023/04/29 09:26:27;;;;;;;2.42;1.50;;;20.20;63.80;;;;;;5055134;28;20045;-30
2023/04/29 09:29:07;;;;;;;1.40;1.30;;;21.00;52.90;;;;;;5054767;28;20050;-30
2023/04/29 09:31:34;;;;;;;2.10;1.40;;;20.80;64.30;;;;;;5054768;28;20057;-30
2023/04/29 09:34:01;;;;;;;2.13;1.35;;;;;;;;;;5052210;28;20075;-30
2023/04/29 09:36:44;;;;;;;2.03;1.40;;;20.20;63.90;;;;;;5051878;28;20048;-30
2023/04/29 09:39:14;;;;;;;2.00;1.30;;;21.50;65.60;;;;;;5052064;28;20040;-30
2023/04/29 09:41:58;;;;;;;3.03;1.45;;;21.20;46.70;;;;;;5054701;28;20084;-31
2023/04/29 09:44:26;;;;;;;2.95;1.50;;;22.20;65.50;;;;;;5054124;28;20047;-30
2023/04/29 09:46:56;;;;;;;1.98;1.40;;;21.20;46.70;;;;;;5054434;28;20048;-31
2023/04/29 09:49:23;;;;;;;2.67;1.63;;;21.40;65.60;;;;;;5054917;28;20486;-30
2023/04/29 09:51:54;;;;;;;2.00;1.42;;;21.20;56.40;;;;;;5054007;28;20045;-30
2023/04/29 09:54:23;;;;;;;2.10;1.60;;;21.20;46.70;;;;;;5041868;28;20060;-31
2023/04/29 09:56:50;;;;;;;2.85;1.60;;;21.30;57.80;;;;;;5074781;28;20055;-30
2023/04/29 09:59:17;;;;;;;1.73;1.35;;;;;;;;;;5074818;28;20488;-31
2023/04/29 10:01:44;;;;;;;2.17;1.50;;;;;;;;;;5070205;28;20063;-30
2023/04/29 10:04:11;;;;;;;2.85;1.50;;;;;;;;;;5054552;28;20079;-31
2023/04/29 10:06:38;;;;;;;2.28;1.60;;;22.30;65.20;;;;;;5054714;28;20049;-30
2023/04/29 10:09:06;;;;;;;2.83;1.63;;;;;;;;;;5053921;28;20049;-31
2023/04/29 10:11:34;;;;;;;1.85;1.42;;;22.10;65.40;;;;;;5052967;28;20494;-30
2023/04/29 10:14:01;;;;;;;2.63;1.50;;;20.90;64.30;;;;;;5047618;28;20047;-30
2023/04/29 10:16:29;;;;;;;1.63;1.40;;;21.20;46.60;;;;;;5046969;28;20075;-31
2023/04/29 10:18:56;;;;;;;2.20;1.48;;;21.60;65.00;;;;;;5053117;28;20053;-30
2023/04/29 10:21:27;;;;;;;2.03;1.30;;;21.00;65.00;;;;;;5053050;28;20460;-30
2023/04/29 10:23:54;;;;;;;2.00;1.40;;;21.20;64.40;;;;;;5053273;28;20041;-30
2023/04/29 10:26:21;;;;;;;2.28;1.50;;;;;;;;;;5054485;28;20132;-30
2023/04/29 10:28:50;;;;;;;1.48;1.27;;;21.30;65.20;;;;;;5039611;28;20045;-30
2023/04/29 10:31:17;;;;;;;2.70;1.50;;;;;;;;;;5034454;28;20136;-30
2023/04/29 10:33:44;;;;;;;2.00;1.58;;;22.00;65.60;;;;;;5033999;28;20045;-30
2023/04/29 10:36:12;;;;;;;3.17;1.52;;;;;;;;;;5035179;28;20055;-30
2023/04/29 10:38:40;;;;;;;3.10;1.38;;;21.00;46.30;;;;;;5052191;28;20512;-31
2023/04/29 10:41:09;;;;;;;2.85;1.75;;;21.50;58.30;;;;;;5052059;28;20041;-30
2023/04/29 10:43:36;;;;;;;2.08;1.40;;;22.50;64.90;;;;;;5037698;28;20060;-31
2023/04/29 10:46:20;;;;;;;2.25;1.60;;;21.40;46.30;;;;;;5047948;28;20059;-32
2023/04/29 10:48:47;;;;;;;3.13;1.38;;;21.40;48.80;;;;;;5054251;28;20053;-31
2023/04/29 10:51:14;;;;;;;1.75;1.55;;;21.40;64.60;;;;;;5053888;28;20051;-30
2023/04/29 10:54:00;;;;;;;3.47;1.70;;;21.40;46.30;;;;;;5053349;28;20520;-31
2023/04/29 10:56:41;;;;;;;2.78;1.83;;;21.10;57.60;;;;;;5040395;28;20041;-30
2023/04/29 10:59:14;;;;;;;2.67;1.60;;;21.30;64.20;;;;;;5047907;28;20050;-31
2023/04/29 11:01:48;;;;;;;6.28;2.85;;;21.30;56.60;;;;;;5038873;28;20047;-30
2023/04/29 11:04:15;;;;;;;4.15;2.58;;;21.50;64.50;;;;;;5025706;28;20132;-30
2023/04/29 11:06:44;;;;;;;7.53;3.22;;;22.30;64.70;;;;;;5042488;28;20048;-30
2023/04/29 11:09:13;;;;;;;5.90;2.78;;;21.00;47.10;;;;;;5044687;28;20045;-30
2023/04/29 11:11:57;;;;;;;6.35;3.15;;;21.70;53.60;;;;;;5047470;28;20056;-30
2023/04/29 11:14:25;;;;;;;6.38;3.13;;;21.40;46.30;;;;;;5053292;28;20464;-31
2023/04/29 11:16:54;;;;;;;8.63;3.60;;;21.40;46.30;;;;;;5053343;28;20041;-31
2023/04/29 11:19:21;;;;;;;7.97;3.97;;;21.60;65.20;;;;;;5053293;28;20448;-30
2023/04/29 11:21:47;;;;;;;8.75;4.28;;;21.50;64.70;;;;;;5053164;28;20055;-30
2023/04/29 11:24:16;;;;;;;9.48;4.28;;;21.30;57.50;;;;;;5052462;28;20059;-30
2023/04/29 11:26:43;;;;;;;10.23;4.40;;;21.10;64.10;;;;;;5053336;28;20051;-30
2023/04/29 11:29:10;;;;;;;10.18;4.30;;;;;;;;;;5052967;28;20049;-31
2023/04/29 11:31:37;;;;;;;9.18;3.92;;;21.30;64.10;;;;;;5053225;28;20041;-30
2023/04/29 11:34:06;;;;;;;8.05;4.03;;;21.10;52.80;;;;;;5052499;28;20049;-30
2023/04/29 11:36:33;;;;;;;10.25;4.22;;;21.30;64.10;;;;;;5052674;28;20053;-30
2023/04/29 11:39:00;;;;;;;7.47;3.50;;;20.80;64.30;;;;;;5051505;28;20045;-30
2023/04/29 11:41:27;;;;;;;8.07;4.25;;;;;;;;;;5032749;28;20490;-30
2023/04/29 11:43:58;;;;;;;8.52;4.07;;;21.30;46.20;;;;;;5033707;28;20463;-31
2023/04/29 11:46:25;;;;;;;9.13;3.95;;;;;;;;;;5052511;28;20063;-31
2023/04/29 11:48:52;;;;;;;8.35;4.10;;;;;;;;;;5045999;28;20055;-30
2023/04/29 11:51:21;;;;;;;6.18;3.47;;;21.30;46.30;;;;;;5041710;28;20120;-31
2023/04/29 11:53:48;;;;;;;7.03;3.42;;;;;;;;;;5040021;28;20042;-31
2023/04/29 11:56:15;;;;;;;6.65;3.60;;;;;;;;;;5043667;28;20046;-30
2023/04/29 11:58:42;;;;;;;7.63;3.17;;;21.00;65.00;;;;;;5051024;28;20083;-30
2023/04/29 12:01:10;;;;;;;8.85;4.03;;;;;;;;;;5047799;28;20049;-31
2023/04/29 12:03:36;;;;;;;6.32;3.22;;;20.90;64.80;;;;;;5032491;28;20049;-30
2023/04/29 12:06:03;;;;;;;5.35;3.10;;;20.40;46.70;;;;;;5032885;28;20053;-31
2023/04/29 12:08:32;;;;;;;5.32;3.30;;;21.10;65.10;;;;;;5042201;28;20073;-30
2023/04/29 12:11:00;;;;;;;6.55;3.13;;;;;;;;;;5052631;28;20098;-31
2023/04/29 12:13:28;;;;;;;4.63;2.83;;;21.10;64.50;;;;;;5052262;28;20052;-30
2023/04/29 12:15:55;;;;;;;4.85;2.88;;;21.40;65.10;;;;;;5052195;28;20525;-30
2023/04/29 12:18:22;;;;;;;3.85;2.60;;;;;;;;;;5052153;28;20132;-31
2023/04/29 12:20:50;;;;;;;4.72;2.58;;;20.20;63.70;;;;;;5047854;28;20045;-30
2023/04/29 12:23:17;;;;;;;5.28;2.80;;;21.60;64.70;;;;;;5045877;28;20045;-30
2023/04/29 12:25:49;;;;;;;4.82;2.65;;;21.30;64.60;;;;;;5052319;28;20060;-30
2023/04/29 12:28:16;;;;;;;5.50;3.03;;;21.50;49.90;;;;;;5052157;28;20049;-30
2023/04/29 12:30:44;;;;;;;4.85;2.40;;;21.30;64.20;;;;;;5053029;28;20044;-30
2023/04/29 12:33:11;;;;;;;3.20;2.30;;;;;;;;;;5051377;28;20049;-30
2023/04/29 12:35:38;;;;;;;4.15;2.55;;;;;;;;;;5051998;28;20052;-30
2023/04/29 12:38:05;;;;;;;3.92;2.58;;;20.60;63.90;;;;;;5045296;28;20045;-30
2023/04/29 12:40:32;;;;;;;6.00;2.22;;;20.90;64.00;;;;;;5040609;28;20375;-30
2023/04/29 12:43:07;;;;;;;4.65;2.67;;;21.20;46.40;;;;;;5041515;28;20049;-31
2023/04/29 12:45:34;;;;;;;4.80;2.38;;;20.50;64.70;;;;;;5040773;28;20046;-30
2023/04/29 12:48:01;;;;;;;3.78;2.50;;;;;;;;;;5041272;28;20511;-30
2023/04/29 12:50:32;;;;;;;3.95;2.15;;;20.70;64.10;;;;;;5042403;28;20100;-30
2023/04/29 12:52:59;;;;;;;3.65;2.38;;;21.00;64.20;;;;;;5034546;28;20076;-31
2023/04/29 12:55:26;;;;;;;3.13;2.10;;;21.30;58.50;;;;;;5056887;28;20054;-30
2023/04/29 12:57:53;;;;;;;3.60;2.25;;;;;;;;;;5071283;28;20048;-30
2023/04/29 13:00:21;;;;;;;3.83;2.17;;;21.10;65.20;;;;;;5031650;28;20053;-30
2023/04/29 13:02:48;;;;;;;3.28;2.22;;;20.20;64.30;;;;;;5031390;28;20060;-30
2023/04/29 13:05:15;;;;;;;5.28;2.35;;;;;;;;;;5044526;28;20045;-31
2023/04/29 13:07:42;;;;;;;5.00;2.28;;;21.40;65.40;;;;;;5049341;28;20055;-31
2023/04/29 13:10:11;;;;;;;3.10;2.30;;;21.20;46.50;;;;;;5031363;28;20493;-31
2023/04/29 13:12:38;;;;;;;3.92;2.33;;;21.10;64.40;;;;;;5041370;28;20055;-30